Time;durP1;ratioP1;P1;durP2;ratioP2;P2;SDS_P1;SDS_P2;PMS_P1;PMS_P2;Temp;Humidity;BMP_temperature;BMP_pressure;BME280_temperature;BME280_humidity;BME280_pressure;Samples;Min_cycle;Max_cycle;Signal;HPM_P1;HPM_P2
2023/12/17 00:01:32;;;;;;;2.50;1.40;;;8.20;99.90;;;;;;5044229;28;20889;-80
2023/12/17 00:04:00;;;;;;;2.90;1.80;;;8.20;99.90;;;;;;5037141;28;20481;-79
2023/12/17 00:06:28;;;;;;;2.65;1.67;;;8.20;99.90;;;;;;5045519;28;20557;-80
2023/12/17 00:08:57;;;;;;;5.10;1.95;;;8.30;99.90;;;;;;5046806;28;20275;-81
2023/12/17 00:11:26;;;;;;;4.45;1.83;;;8.30;99.90;;;;;;5045073;28;20232;-84
2023/12/17 00:13:54;;;;;;;3.95;1.85;;;8.20;99.90;;;;;;5040835;28;20248;-79
2023/12/17 00:16:22;;;;;;;3.70;2.27;;;8.20;99.90;;;;;;5034891;28;20573;-79
2023/12/17 00:18:50;;;;;;;5.13;1.85;;;8.20;99.90;;;;;;5045139;28;20530;-79
2023/12/17 00:21:18;;;;;;;5.30;1.80;;;8.20;99.90;;;;;;5044116;28;20227;-80
2023/12/17 00:23:47;;;;;;;1.80;1.42;;;8.30;99.90;;;;;;5046437;28;20461;-82
2023/12/17 00:26:15;;;;;;;2.67;1.30;;;8.20;99.90;;;;;;5049862;28;20220;-84
2023/12/17 00:28:44;;;;;;;1.85;1.38;;;8.20;99.90;;;;;;5045528;28;20504;-83
2023/12/17 00:31:12;;;;;;;2.60;1.95;;;8.30;99.90;;;;;;5049987;28;20249;-82
2023/12/17 00:33:41;;;;;;;3.07;1.70;;;8.20;99.90;;;;;;5029839;28;20199;-81
2023/12/17 00:36:09;;;;;;;3.97;2.15;;;8.20;99.90;;;;;;5039950;28;20577;-81
2023/12/17 00:38:37;;;;;;;3.17;1.60;;;8.30;99.90;;;;;;5048098;28;20185;-82
2023/12/17 00:41:06;;;;;;;3.63;2.45;;;8.20;99.90;;;;;;5057300;28;20478;-83
2023/12/17 00:43:35;;;;;;;2.30;1.55;;;8.30;99.90;;;;;;5034581;28;20198;-80
2023/12/17 00:46:05;;;;;;;2.00;1.20;;;8.30;99.90;;;;;;5038614;28;20245;-84
2023/12/17 00:48:33;;;;;;;3.50;2.20;;;8.30;99.90;;;;;;5044011;28;20777;-83
2023/12/17 00:51:01;;;;;;;2.37;1.70;;;8.20;99.90;;;;;;5046989;28;20535;-79
2023/12/17 00:53:29;;;;;;;2.60;1.70;;;8.20;99.90;;;;;;5040213;28;20506;-82
2023/12/17 00:55:57;;;;;;;2.10;1.42;;;8.30;99.90;;;;;;5039786;28;20489;-81
2023/12/17 00:58:25;;;;;;;2.33;1.37;;;8.30;99.90;;;;;;5039140;28;20219;-86
2023/12/17 01:00:53;;;;;;;3.07;2.10;;;8.30;99.90;;;;;;5052847;28;20511;-84
2023/12/17 01:03:24;;;;;;;2.60;1.50;;;8.20;99.90;;;;;;5040895;28;20462;-86
2023/12/17 01:05:52;;;;;;;1.80;1.40;;;8.20;99.90;;;;;;5039087;28;20463;-84
2023/12/17 01:08:21;;;;;;;3.70;1.97;;;8.20;99.90;;;;;;5059215;28;20431;-87
2023/12/17 01:10:49;;;;;;;2.58;1.65;;;8.30;99.90;;;;;;5059016;28;20458;-85
2023/12/17 01:13:18;;;;;;;3.97;1.75;;;8.20;99.90;;;;;;5044598;28;20203;-82
2023/12/17 01:15:46;;;;;;;3.17;1.90;;;8.30;99.90;;;;;;5032367;28;20228;-82
2023/12/17 01:18:14;;;;;;;4.63;1.67;;;8.30;99.90;;;;;;5038161;28;20517;-83
2023/12/17 01:20:44;;;;;;;2.55;1.40;;;8.20;99.90;;;;;;5036296;28;20978;-83
2023/12/17 01:23:12;;;;;;;3.25;1.85;;;8.30;99.90;;;;;;5051006;28;20197;-83
2023/12/17 01:25:40;;;;;;;1.80;1.30;;;8.20;99.90;;;;;;5035796;28;20226;-81
2023/12/17 01:28:09;;;;;;;2.80;1.65;;;8.20;99.90;;;;;;5050459;28;20196;-82
2023/12/17 01:30:37;;;;;;;2.27;1.37;;;8.20;99.90;;;;;;5045922;28;20224;-83
2023/12/17 01:33:05;;;;;;;3.40;2.03;;;8.20;99.90;;;;;;5035491;28;20429;-84
2023/12/17 01:35:33;;;;;;;2.60;1.67;;;8.30;99.90;;;;;;5044891;28;20243;-80
2023/12/17 01:38:03;;;;;;;1.83;1.25;;;8.20;99.90;;;;;;5048104;28;20520;-82
2023/12/17 01:40:31;;;;;;;2.80;1.35;;;8.30;99.90;;;;;;5049817;28;20216;-82
2023/12/17 01:42:59;;;;;;;2.17;1.23;;;8.20;99.90;;;;;;5031777;28;20243;-82
2023/12/17 01:45:27;;;;;;;2.97;1.37;;;8.20;99.90;;;;;;5048059;28;20301;-79
2023/12/17 01:47:56;;;;;;;2.80;1.73;;;8.20;99.90;;;;;;5043056;28;20462;-81
2023/12/17 01:50:24;;;;;;;2.13;1.67;;;8.30;99.90;;;;;;5044772;28;20185;-80
2023/12/17 01:52:54;;;;;;;3.13;1.33;;;8.20;99.90;;;;;;5049740;28;20980;-80
2023/12/17 01:55:25;;;;;;;2.55;2.30;;;8.20;99.90;;;;;;5037706;28;20465;-80
2023/12/17 01:57:53;;;;;;;2.95;1.50;;;8.30;99.90;;;;;;5047058;28;20230;-78
2023/12/17 02:00:22;;;;;;;2.47;1.30;;;8.20;99.90;;;;;;5048001;28;20673;-82
2023/12/17 02:02:52;;;;;;;1.83;1.30;;;8.30;99.90;;;;;;5032955;28;20913;-83
2023/12/17 02:05:20;;;;;;;2.30;1.38;;;8.30;99.90;;;;;;5049621;28;20419;-80
2023/12/17 02:07:49;;;;;;;2.42;1.30;;;8.20;99.90;;;;;;5050046;28;20222;-80
2023/12/17 02:10:17;;;;;;;2.40;1.70;;;8.20;99.90;;;;;;5031333;28;20181;-82
2023/12/17 02:12:46;;;;;;;2.50;1.60;;;8.20;99.90;;;;;;5048920;28;20242;-83
2023/12/17 02:15:14;;;;;;;3.20;1.33;;;8.30;99.90;;;;;;5049734;28;20350;-81
2023/12/17 02:17:42;;;;;;;2.17;1.48;;;8.20;99.90;;;;;;5034262;28;20827;-81
2023/12/17 02:20:12;;;;;;;3.90;1.60;;;8.20;99.90;;;;;;5036691;28;20349;-82
2023/12/17 02:22:40;;;;;;;2.30;1.65;;;8.20;99.90;;;;;;5040541;28;20466;-84
2023/12/17 02:25:10;;;;;;;1.93;1.40;;;8.20;99.90;;;;;;5051462;28;20192;-82
2023/12/17 02:27:38;;;;;;;2.67;1.88;;;8.20;99.90;;;;;;5038972;28;20965;-86
2023/12/17 02:30:08;;;;;;;2.27;1.20;;;8.20;99.90;;;;;;5056146;28;20207;-86
2023/12/17 02:32:36;;;;;;;2.85;1.70;;;8.30;99.90;;;;;;5057165;28;20463;-84
2023/12/17 02:35:05;;;;;;;1.77;1.17;;;8.30;99.90;;;;;;5040669;28;20205;-86
2023/12/17 02:37:33;;;;;;;2.83;1.47;;;8.30;99.90;;;;;;5043409;28;20704;-82
2023/12/17 02:40:01;;;;;;;1.85;1.33;;;8.20;99.90;;;;;;5040630;28;20481;-81
2023/12/17 02:42:30;;;;;;;2.33;1.40;;;8.30;99.90;;;;;;5043763;28;20287;-82
2023/12/17 02:44:58;;;;;;;2.42;1.38;;;8.20;99.90;;;;;;5037016;28;20197;-83
2023/12/17 02:47:27;;;;;;;1.80;1.20;;;8.20;99.90;;;;;;5038085;28;20718;-81
2023/12/17 02:49:55;;;;;;;2.50;1.40;;;8.20;99.90;;;;;;5040742;28;20609;-84
2023/12/17 02:52:23;;;;;;;2.75;1.60;;;8.30;99.90;;;;;;5033906;28;20212;-83
2023/12/17 02:54:51;;;;;;;1.42;1.23;;;8.20;99.90;;;;;;5038533;28;20247;-81
2023/12/17 02:57:24;;;;;;;2.13;1.33;;;8.20;99.90;;;;;;5041204;28;20235;-82
2023/12/17 02:59:54;;;;;;;2.28;1.45;;;8.20;99.90;;;;;;5038007;28;20207;-81
2023/12/17 03:02:23;;;;;;;2.60;1.40;;;8.30;99.90;;;;;;5045324;28;20248;-82
2023/12/17 03:04:51;;;;;;;2.20;1.73;;;8.20;99.90;;;;;;5036042;28;20615;-84
2023/12/17 03:07:19;;;;;;;2.42;1.73;;;8.20;99.90;;;;;;5036324;28;20483;-84
2023/12/17 03:09:49;;;;;;;2.00;1.30;;;8.30;99.90;;;;;;5033915;28;20177;-81
2023/12/17 03:12:17;;;;;;;2.10;1.30;;;8.20;99.90;;;;;;5031430;28;20588;-82
2023/12/17 03:14:45;;;;;;;2.13;1.30;;;8.20;99.90;;;;;;5046929;28;21169;-81
2023/12/17 03:17:15;;;;;;;2.95;1.25;;;8.20;99.90;;;;;;5034243;28;20835;-80
2023/12/17 03:19:43;;;;;;;1.52;1.10;;;8.20;99.90;;;;;;5042538;28;20813;-82
2023/12/17 03:22:11;;;;;;;1.77;0.85;;;8.20;99.90;;;;;;5039544;28;20220;-81
2023/12/17 03:24:39;;;;;;;2.60;1.70;;;8.20;99.90;;;;;;5037257;28;20687;-82
2023/12/17 03:27:07;;;;;;;3.00;1.48;;;8.20;99.90;;;;;;5052435;28;20532;-83
2023/12/17 03:29:36;;;;;;;2.67;1.48;;;8.20;99.90;;;;;;5042493;28;20291;-84
2023/12/17 03:32:04;;;;;;;2.85;1.30;;;8.20;99.90;;;;;;5047621;28;20226;-84
2023/12/17 03:34:34;;;;;;;2.28;1.60;;;8.30;99.90;;;;;;5038933;28;20209;-79
2023/12/17 03:37:02;;;;;;;2.65;1.38;;;8.20;99.90;;;;;;5049514;28;20232;-83
2023/12/17 03:39:30;;;;;;;1.20;0.80;;;8.20;99.90;;;;;;5054002;28;20332;-83
2023/12/17 03:41:58;;;;;;;1.70;1.10;;;8.20;99.90;;;;;;5053414;28;20307;-82
2023/12/17 03:44:26;;;;;;;2.53;1.58;;;8.20;99.90;;;;;;5039984;28;21131;-81
2023/12/17 03:46:54;;;;;;;2.10;1.23;;;8.20;99.90;;;;;;5054229;28;20753;-84
2023/12/17 03:49:22;;;;;;;1.93;1.30;;;8.20;99.90;;;;;;5056606;28;20203;-81
2023/12/17 03:51:52;;;;;;;2.08;1.10;;;8.30;99.90;;;;;;5044262;28;20461;-83
2023/12/17 03:54:20;;;;;;;1.30;0.70;;;8.30;99.90;;;;;;5040518;28;20219;-85
2023/12/17 03:56:48;;;;;;;1.92;1.00;;;8.30;99.90;;;;;;5055858;28;20258;-85
2023/12/17 03:59:16;;;;;;;1.80;1.30;;;8.20;99.90;;;;;;5052922;28;20673;-82
2023/12/17 04:01:45;;;;;;;2.55;1.38;;;8.20;99.90;;;;;;5037959;28;20471;-80
2023/12/17 04:04:14;;;;;;;1.77;1.50;;;8.20;99.90;;;;;;5048385;28;20188;-80
2023/12/17 04:06:43;;;;;;;2.20;1.23;;;8.30;99.90;;;;;;5036019;28;20231;-80
2023/12/17 04:09:12;;;;;;;1.90;1.33;;;8.30;99.90;;;;;;5046838;28;20442;-83
2023/12/17 04:11:40;;;;;;;1.58;1.00;;;8.20;99.90;;;;;;5034971;28;20216;-81
2023/12/17 04:14:09;;;;;;;1.58;1.08;;;8.30;99.90;;;;;;5041097;28;20192;-81
2023/12/17 04:16:37;;;;;;;2.10;1.10;;;8.30;99.90;;;;;;5040645;28;20692;-83
2023/12/17 04:19:05;;;;;;;1.80;1.17;;;8.20;99.90;;;;;;5038999;28;20242;-81
2023/12/17 04:21:34;;;;;;;1.80;1.10;;;8.30;99.90;;;;;;5045441;28;20232;-81
2023/12/17 04:24:02;;;;;;;2.03;1.20;;;8.20;99.90;;;;;;5049417;28;20427;-81
2023/12/17 04:26:32;;;;;;;2.25;0.90;;;8.20;99.90;;;;;;5038732;28;20223;-83
2023/12/17 04:29:00;;;;;;;1.80;1.10;;;8.20;99.90;;;;;;5043069;28;20241;-82
2023/12/17 04:31:28;;;;;;;2.08;1.13;;;8.30;99.90;;;;;;5034929;28;20975;-83
2023/12/17 04:33:58;;;;;;;2.20;1.13;;;8.20;99.90;;;;;;5041866;28;20214;-85
2023/12/17 04:36:27;;;;;;;1.50;1.00;;;8.20;99.90;;;;;;5041598;28;20999;-82
2023/12/17 04:38:55;;;;;;;1.70;1.20;;;8.20;99.90;;;;;;5039080;28;20805;-82
2023/12/17 04:41:24;;;;;;;1.98;1.35;;;8.20;99.90;;;;;;5044040;28;20478;-85
2023/12/17 04:43:53;;;;;;;1.55;0.90;;;8.20;99.90;;;;;;5035220;28;20203;-85
2023/12/17 04:46:22;;;;;;;1.90;1.20;;;8.20;99.90;;;;;;5055170;28;20255;-85
2023/12/17 04:48:50;;;;;;;1.80;1.20;;;8.20;99.90;;;;;;5056419;28;20191;-86
2023/12/17 04:51:21;;;;;;;1.58;1.20;;;8.30;99.90;;;;;;5055635;28;20874;-82
2023/12/17 04:53:49;;;;;;;1.58;1.05;;;8.30;99.90;;;;;;5029166;28;20196;-79
2023/12/17 04:56:18;;;;;;;2.45;1.33;;;8.20;99.90;;;;;;5054654;28;20249;-84
2023/12/17 04:58:46;;;;;;;2.42;1.25;;;8.30;99.90;;;;;;5034846;28;20203;-83
2023/12/17 05:01:16;;;;;;;1.55;1.13;;;8.20;99.90;;;;;;5057133;28;20227;-82
2023/12/17 05:03:44;;;;;;;2.33;1.30;;;8.30;99.90;;;;;;5057710;28;20201;-87
2023/12/17 05:06:12;;;;;;;2.60;1.10;;;8.20;99.90;;;;;;5039022;28;20238;-84
2023/12/17 05:08:41;;;;;;;1.88;1.33;;;8.30;99.90;;;;;;5056307;28;20200;-84
2023/12/17 05:11:09;;;;;;;1.40;1.00;;;8.20;99.90;;;;;;5043153;28;20228;-85
2023/12/17 05:13:37;;;;;;;1.70;1.20;;;8.20;99.90;;;;;;5048730;28;20224;-82
2023/12/17 05:16:06;;;;;;;3.03;1.40;;;8.20;99.90;;;;;;5041503;28;20279;-85
2023/12/17 05:18:35;;;;;;;1.30;0.80;;;8.20;99.90;;;;;;5060611;28;20520;-86
2023/12/17 05:21:04;;;;;;;1.90;1.27;;;8.20;99.90;;;;;;5057896;28;20482;-82
2023/12/17 05:23:32;;;;;;;1.70;1.00;;;8.20;99.90;;;;;;5041030;28;20204;-80
2023/12/17 05:26:00;;;;;;;1.70;1.30;;;8.30;99.90;;;;;;5050476;28;20224;-81
2023/12/17 05:28:28;;;;;;;3.08;1.20;;;8.30;99.90;;;;;;5038100;28;20212;-84
2023/12/17 05:30:56;;;;;;;2.53;1.48;;;8.20;99.90;;;;;;5035917;28;20308;-80
2023/12/17 05:33:25;;;;;;;1.65;1.02;;;8.20;99.90;;;;;;5050554;28;20203;-78
2023/12/17 05:35:55;;;;;;;1.98;1.15;;;8.20;99.90;;;;;;5049797;28;20224;-81
2023/12/17 05:38:23;;;;;;;1.73;0.97;;;8.20;99.90;;;;;;5041764;28;20205;-78
2023/12/17 05:40:51;;;;;;;2.50;1.42;;;8.20;99.90;;;;;;5043012;28;20995;-83
2023/12/17 05:43:19;;;;;;;1.85;1.15;;;8.20;99.90;;;;;;5038501;28;20312;-81
2023/12/17 05:45:48;;;;;;;2.67;1.47;;;8.30;99.90;;;;;;5029781;28;20629;-81
2023/12/17 05:48:26;;;;;;;2.08;1.30;;;8.30;99.90;;;;;;5038828;28;20434;-80
2023/12/17 05:50:55;;;;;;;2.47;1.30;;;8.20;99.90;;;;;;5040119;28;20224;-80
2023/12/17 05:53:23;;;;;;;1.77;1.17;;;8.30;99.90;;;;;;5048877;28;20490;-80
2023/12/17 05:56:05;;;;;;;2.03;1.10;;;8.30;99.90;;;;;;5049518;28;20532;-82
2023/12/17 05:58:33;;;;;;;1.70;1.20;;;8.20;99.90;;;;;;5033339;28;21222;-81
2023/12/17 06:01:02;;;;;;;1.83;0.90;;;8.20;99.90;;;;;;5042571;28;20478;-83
2023/12/17 06:03:31;;;;;;;2.10;1.43;;;8.30;99.90;;;;;;5050185;28;20220;-80
2023/12/17 06:06:00;;;;;;;2.13;1.40;;;8.30;99.90;;;;;;5024606;28;20467;-81
2023/12/17 06:08:29;;;;;;;2.00;1.27;;;8.20;99.90;;;;;;5049984;28;20440;-80
2023/12/17 06:10:57;;;;;;;1.67;0.90;;;8.20;99.90;;;;;;5046649;28;20471;-84
2023/12/17 06:13:25;;;;;;;2.50;1.60;;;8.30;99.90;;;;;;5049684;28;20430;-85
2023/12/17 06:15:54;;;;;;;2.63;1.60;;;8.20;99.90;;;;;;5041274;28;20470;-84
2023/12/17 06:18:22;;;;;;;2.07;0.90;;;8.20;99.90;;;;;;5050520;28;20935;-83
2023/12/17 06:20:50;;;;;;;2.10;1.30;;;8.20;99.90;;;;;;5042542;28;20464;-84
2023/12/17 06:23:20;;;;;;;1.75;1.00;;;8.30;99.90;;;;;;5038174;28;20211;-82
2023/12/17 06:25:48;;;;;;;2.30;1.42;;;8.20;99.90;;;;;;5036455;28;20232;-82
2023/12/17 06:28:16;;;;;;;2.07;1.33;;;8.20;99.90;;;;;;5040969;28;20212;-85
2023/12/17 06:30:44;;;;;;;2.20;1.17;;;8.20;99.90;;;;;;5051934;28;20485;-85
2023/12/17 06:33:13;;;;;;;1.73;1.08;;;8.20;99.90;;;;;;5040860;28;20935;-85
2023/12/17 06:35:41;;;;;;;2.20;1.40;;;8.20;99.90;;;;;;5042978;28;20542;-86
2023/12/17 06:38:09;;;;;;;2.83;1.70;;;8.30;99.90;;;;;;5048894;28;20435;-88
2023/12/17 06:40:39;;;;;;;1.60;1.07;;;8.20;99.90;;;;;;5057273;28;20224;-87
2023/12/17 06:43:08;;;;;;;1.80;1.13;;;8.20;99.90;;;;;;5048272;28;20475;-86
2023/12/17 06:45:37;;;;;;;2.15;1.42;;;8.30;99.90;;;;;;5058021;28;20438;-86
2023/12/17 06:48:05;;;;;;;1.47;1.00;;;8.20;99.90;;;;;;5040117;28;20290;-83
2023/12/17 06:50:35;;;;;;;2.47;1.10;;;8.20;99.90;;;;;;5038871;28;20511;-82
2023/12/17 06:53:03;;;;;;;2.23;1.30;;;8.20;99.90;;;;;;5039964;28;20537;-83
2023/12/17 06:55:31;;;;;;;1.77;1.27;;;8.20;99.90;;;;;;5045453;28;20820;-84
2023/12/17 06:58:01;;;;;;;3.25;1.30;;;8.20;99.90;;;;;;5039689;28;20512;-86
2023/12/17 07:00:29;;;;;;;2.03;1.23;;;8.20;99.90;;;;;;5042689;28;20205;-82
2023/12/17 07:02:57;;;;;;;2.15;1.45;;;8.20;99.90;;;;;;5047969;28;20451;-82
2023/12/17 07:05:25;;;;;;;1.60;1.10;;;8.20;99.90;;;;;;5048629;28;20200;-83
2023/12/17 07:07:53;;;;;;;1.90;1.30;;;8.20;99.90;;;;;;5047171;28;20471;-84
2023/12/17 07:10:21;;;;;;;2.53;1.67;;;8.30;99.90;;;;;;5040386;28;20457;-84
2023/12/17 07:12:49;;;;;;;1.80;1.27;;;8.20;99.90;;;;;;5039789;28;21186;-81
2023/12/17 07:15:19;;;;;;;1.63;1.10;;;8.20;99.90;;;;;;5046439;28;20489;-82
2023/12/17 07:17:47;;;;;;;2.07;1.43;;;8.20;99.90;;;;;;5044448;28;20470;-82
2023/12/17 07:20:15;;;;;;;1.93;1.20;;;8.20;99.90;;;;;;5034177;28;20439;-81
2023/12/17 07:22:43;;;;;;;1.80;1.10;;;8.20;99.90;;;;;;5040392;28;20479;-81
2023/12/17 07:25:12;;;;;;;2.20;1.30;;;8.20;99.90;;;;;;5036232;28;20466;-83
2023/12/17 07:27:40;;;;;;;1.80;1.20;;;8.20;99.90;;;;;;5033954;28;20228;-82
2023/12/17 07:30:09;;;;;;;2.73;1.80;;;8.20;99.90;;;;;;5048626;28;20525;-83
2023/12/17 07:32:39;;;;;;;1.80;1.10;;;8.20;99.90;;;;;;5047578;28;20524;-80
2023/12/17 07:35:08;;;;;;;2.13;1.30;;;8.20;99.90;;;;;;5048508;28;20196;-81
2023/12/17 07:37:36;;;;;;;2.10;1.00;;;8.20;99.90;;;;;;5038942;28;20467;-83
2023/12/17 07:40:06;;;;;;;1.57;1.10;;;8.20;99.90;;;;;;5044402;28;20225;-79
2023/12/17 07:42:34;;;;;;;1.85;1.10;;;8.20;99.90;;;;;;5026750;28;20475;-81
2023/12/17 07:45:02;;;;;;;2.13;1.13;;;8.20;99.90;;;;;;5033583;28;20224;-79
2023/12/17 07:47:32;;;;;;;1.60;1.10;;;8.20;99.90;;;;;;5030899;28;20220;-81
2023/12/17 07:50:01;;;;;;;2.45;1.42;;;8.20;99.90;;;;;;5046884;28;20217;-80
2023/12/17 07:52:29;;;;;;;2.15;1.00;;;8.20;99.90;;;;;;5030034;28;20803;-84
2023/12/17 07:54:57;;;;;;;1.70;1.40;;;8.20;99.90;;;;;;5037210;28;20589;-83
2023/12/17 07:57:25;;;;;;;1.70;1.20;;;8.20;99.90;;;;;;5042253;28;20482;-81
2023/12/17 07:59:54;;;;;;;2.08;1.27;;;8.20;99.90;;;;;;5036677;28;20459;-82
2023/12/17 08:02:22;;;;;;;2.00;1.30;;;8.20;99.90;;;;;;5042879;28;20711;-80
2023/12/17 08:04:51;;;;;;;1.90;1.20;;;8.20;99.90;;;;;;5034829;28;20281;-84
2023/12/17 08:07:21;;;;;;;1.80;1.15;;;8.20;99.90;;;;;;5032090;28;20720;-84
2023/12/17 08:09:49;;;;;;;1.60;1.10;;;8.20;99.90;;;;;;5032755;28;20312;-82
2023/12/17 08:12:17;;;;;;;1.73;1.17;;;8.20;99.90;;;;;;5028909;28;21011;-79
2023/12/17 08:14:45;;;;;;;1.50;0.88;;;8.20;99.90;;;;;;5027865;28;20195;-80
2023/12/17 08:17:13;;;;;;;1.97;1.13;;;8.20;99.90;;;;;;5047815;28;20338;-84
2023/12/17 08:19:42;;;;;;;2.30;1.10;;;8.20;99.90;;;;;;5038763;28;20454;-79
2023/12/17 08:22:11;;;;;;;1.60;0.90;;;8.20;99.90;;;;;;5042887;28;20234;-80
2023/12/17 08:24:40;;;;;;;1.60;1.07;;;8.20;99.90;;;;;;5048783;28;20475;-80
2023/12/17 08:27:08;;;;;;;1.60;1.05;;;8.20;99.90;;;;;;5029374;28;20483;-81
2023/12/17 08:29:38;;;;;;;1.47;0.93;;;8.20;99.90;;;;;;5038156;28;20230;-81
2023/12/17 08:32:07;;;;;;;1.30;0.77;;;8.20;99.90;;;;;;5024315;28;20475;-82
2023/12/17 08:34:37;;;;;;;1.90;1.23;;;8.20;99.90;;;;;;5047975;28;20443;-83
2023/12/17 08:37:05;;;;;;;2.23;1.20;;;8.20;99.90;;;;;;5027254;28;20482;-82
2023/12/17 08:39:33;;;;;;;1.90;1.10;;;8.20;99.90;;;;;;5048823;28;20447;-82
2023/12/17 08:42:03;;;;;;;1.40;0.70;;;8.20;99.90;;;;;;5029332;28;20483;-82
2023/12/17 08:44:31;;;;;;;1.80;1.20;;;8.20;99.90;;;;;;5042747;28;20451;-80
2023/12/17 08:46:59;;;;;;;1.73;1.33;;;8.20;99.90;;;;;;5033833;28;20467;-79
2023/12/17 08:49:27;;;;;;;2.00;1.47;;;8.20;99.90;;;;;;5038541;28;20462;-82
2023/12/17 08:51:55;;;;;;;2.08;1.38;;;8.20;99.90;;;;;;5032249;28;21187;-82
2023/12/17 08:54:24;;;;;;;1.60;1.00;;;8.20;99.90;;;;;;5034836;28;20235;-79
2023/12/17 08:56:52;;;;;;;1.77;1.37;;;8.20;99.90;;;;;;5044615;28;20479;-81
2023/12/17 08:59:21;;;;;;;2.07;1.13;;;8.20;99.90;;;;;;5049168;28;20491;-82
2023/12/17 09:01:49;;;;;;;2.10;1.10;;;8.20;99.90;;;;;;5038187;28;20474;-83
2023/12/17 09:04:18;;;;;;;1.47;0.93;;;8.20;99.90;;;;;;5034978;28;20473;-82
2023/12/17 09:06:47;;;;;;;2.43;0.70;;;8.20;99.90;;;;;;5034584;28;20467;-80
2023/12/17 09:09:16;;;;;;;1.50;0.93;;;8.20;99.90;;;;;;5036053;28;20447;-84
2023/12/17 09:11:44;;;;;;;1.47;0.80;;;8.20;99.90;;;;;;5040551;28;20467;-81
2023/12/17 09:14:12;;;;;;;2.13;1.10;;;8.20;99.90;;;;;;5037663;28;20427;-80
2023/12/17 09:16:42;;;;;;;1.60;0.95;;;8.20;99.90;;;;;;5036387;28;20468;-81
2023/12/17 09:19:10;;;;;;;1.20;0.70;;;8.20;99.90;;;;;;5041615;28;20211;-83
2023/12/17 09:21:39;;;;;;;1.90;0.90;;;8.20;99.90;;;;;;5039490;28;20516;-84
2023/12/17 09:24:07;;;;;;;1.40;1.03;;;8.20;99.90;;;;;;5044707;28;20459;-83
2023/12/17 09:26:35;;;;;;;1.57;0.90;;;8.20;99.90;;;;;;5042955;28;21037;-82
2023/12/17 09:29:03;;;;;;;1.53;0.77;;;8.20;99.90;;;;;;5051095;28;20454;-84
2023/12/17 09:31:32;;;;;;;2.05;1.27;;;8.20;99.90;;;;;;5047716;28;20489;-80
2023/12/17 09:34:01;;;;;;;1.65;1.15;;;8.20;99.90;;;;;;5059336;28;20444;-86
2023/12/17 09:36:30;;;;;;;1.43;0.83;;;8.20;99.90;;;;;;5055166;28;20228;-83
2023/12/17 09:38:58;;;;;;;1.80;0.82;;;8.20;99.90;;;;;;5019627;28;20455;-81
2023/12/17 09:41:26;;;;;;;1.75;1.15;;;8.20;99.90;;;;;;5041851;28;20220;-83
2023/12/17 09:43:55;;;;;;;2.97;1.17;;;8.20;99.90;;;;;;5036765;28;20213;-82
2023/12/17 09:46:24;;;;;;;1.70;1.05;;;8.20;99.90;;;;;;5049705;28;20855;-80
2023/12/17 09:48:52;;;;;;;1.57;0.93;;;8.20;99.90;;;;;;5048942;28;20196;-81
2023/12/17 09:51:24;;;;;;;1.60;0.90;;;8.20;99.90;;;;;;5039270;28;20576;-80
2023/12/17 09:53:52;;;;;;;1.47;0.93;;;8.20;99.90;;;;;;5046889;28;20445;-82
2023/12/17 09:56:21;;;;;;;2.80;0.90;;;8.20;99.90;;;;;;5047195;28;20536;-80
2023/12/17 09:58:49;;;;;;;1.67;0.98;;;8.20;99.90;;;;;;5042394;28;20200;-83
2023/12/17 10:01:17;;;;;;;2.50;1.38;;;8.20;99.90;;;;;;5029917;28;20222;-84
2023/12/17 10:03:46;;;;;;;1.77;1.10;;;8.20;99.90;;;;;;5047988;28;20203;-82
2023/12/17 10:06:14;;;;;;;1.57;1.17;;;8.20;99.90;;;;;;5033246;28;20481;-83
2023/12/17 10:08:43;;;;;;;2.03;1.03;;;8.20;99.90;;;;;;5049281;28;20501;-79
2023/12/17 10:11:11;;;;;;;3.05;1.42;;;8.20;99.90;;;;;;5035421;28;20529;-81
2023/12/17 10:13:40;;;;;;;2.03;1.45;;;8.20;99.90;;;;;;5035014;28;20238;-82
2023/12/17 10:16:08;;;;;;;1.60;0.90;;;8.20;99.90;;;;;;5050573;28;20231;-84
2023/12/17 10:18:36;;;;;;;3.07;2.07;;;8.20;99.90;;;;;;5027311;28;20455;-81
2023/12/17 10:21:05;;;;;;;2.07;1.30;;;8.20;99.90;;;;;;5036548;28;20471;-80
2023/12/17 10:23:47;;;;;;;2.13;1.33;;;8.20;99.90;;;;;;5033705;28;20438;-83
2023/12/17 10:26:19;;;;;;;2.17;1.40;;;8.20;99.90;;;;;;5051503;28;22074;-81
2023/12/17 10:28:49;;;;;;;2.20;1.33;;;8.20;99.90;;;;;;5033455;28;20504;-82
2023/12/17 10:31:18;;;;;;;2.23;1.50;;;8.20;99.90;;;;;;5051188;28;20459;-81
2023/12/17 10:33:55;;;;;;;2.80;1.77;;;8.20;99.90;;;;;;5024991;28;20466;-84
2023/12/17 10:36:24;;;;;;;2.03;1.40;;;8.20;99.90;;;;;;5048973;28;20469;-83
2023/12/17 10:38:54;;;;;;;2.70;1.50;;;8.20;99.90;;;;;;5030309;28;20254;-80
2023/12/17 10:41:25;;;;;;;3.00;1.97;;;8.20;99.90;;;;;;5040072;28;20470;-83
2023/12/17 10:43:55;;;;;;;2.53;1.50;;;8.20;99.90;;;;;;5035265;28;20449;-81
2023/12/17 10:46:24;;;;;;;2.50;1.65;;;8.20;99.90;;;;;;5045410;28;20704;-85
2023/12/17 10:48:54;;;;;;;2.70;1.70;;;8.30;99.90;;;;;;5054827;28;20200;-81
2023/12/17 10:51:25;;;;;;;2.13;1.17;;;8.30;99.90;;;;;;5044717;28;20479;-85
2023/12/17 10:53:55;;;;;;;1.93;1.23;;;8.20;99.90;;;;;;5041595;28;20247;-84
2023/12/17 10:56:24;;;;;;;2.27;1.70;;;8.30;99.90;;;;;;5044224;28;20473;-83
2023/12/17 10:58:54;;;;;;;1.87;1.40;;;8.30;99.90;;;;;;5052553;28;20825;-82
2023/12/17 11:01:26;;;;;;;2.70;1.30;;;8.20;99.90;;;;;;5035925;28;20461;-80
2023/12/17 11:03:54;;;;;;;2.23;1.40;;;8.20;99.90;;;;;;5033108;28;20435;-81
2023/12/17 11:06:22;;;;;;;2.23;1.40;;;8.30;99.90;;;;;;5048170;28;20554;-82
2023/12/17 11:08:51;;;;;;;2.53;1.60;;;8.20;99.90;;;;;;5040703;28;20847;-81
2023/12/17 11:11:22;;;;;;;2.50;1.80;;;8.30;99.90;;;;;;5039227;28;20503;-80
2023/12/17 11:13:51;;;;;;;2.60;1.27;;;8.20;99.90;;;;;;5048333;28;20509;-80
2023/12/17 11:16:24;;;;;;;2.30;1.20;;;8.20;99.90;;;;;;5038987;28;20474;-81
2023/12/17 11:18:52;;;;;;;2.23;1.40;;;8.20;99.90;;;;;;5033007;28;20938;-82
2023/12/17 11:21:22;;;;;;;2.50;1.37;;;8.30;99.90;;;;;;5042618;28;20459;-82
2023/12/17 11:23:51;;;;;;;2.43;1.60;;;8.30;99.90;;;;;;5049022;28;20481;-82
2023/12/17 11:26:21;;;;;;;2.47;1.57;;;8.30;99.90;;;;;;5036918;28;20820;-81
2023/12/17 11:28:49;;;;;;;1.73;1.17;;;8.30;99.90;;;;;;5045021;28;20439;-81
2023/12/17 11:31:18;;;;;;;2.75;1.38;;;8.30;99.90;;;;;;5038770;28;20459;-82
2023/12/17 11:33:48;;;;;;;2.70;1.57;;;8.30;99.90;;;;;;5040372;28;20303;-82
2023/12/17 11:36:18;;;;;;;2.10;1.20;;;8.30;99.90;;;;;;5029244;28;20475;-88
2023/12/17 11:38:47;;;;;;;2.20;1.60;;;8.30;99.90;;;;;;5047891;28;20431;-81
2023/12/17 11:41:15;;;;;;;2.10;1.73;;;8.30;99.90;;;;;;5038148;28;20548;-82
2023/12/17 11:43:45;;;;;;;2.50;1.60;;;8.30;99.90;;;;;;5028320;28;20440;-81
2023/12/17 11:46:15;;;;;;;3.00;2.10;;;8.30;99.90;;;;;;5046584;28;20459;-81
2023/12/17 11:48:43;;;;;;;2.87;2.27;;;8.30;99.90;;;;;;5039262;28;21312;-79
2023/12/17 11:51:25;;;;;;;2.83;1.47;;;8.30;99.90;;;;;;5046799;28;20470;-83
2023/12/17 11:53:53;;;;;;;2.53;1.70;;;8.30;99.90;;;;;;5028550;28;20971;-80
2023/12/17 11:56:29;;;;;;;2.67;1.40;;;8.30;99.90;;;;;;5036843;28;21010;-83
2023/12/17 11:58:58;;;;;;;2.37;1.53;;;8.30;99.90;;;;;;5046822;28;21032;-81
2023/12/17 12:01:26;;;;;;;2.50;1.57;;;8.30;99.90;;;;;;5046298;28;20462;-84
2023/12/17 12:03:57;;;;;;;2.30;1.60;;;8.30;99.90;;;;;;5039553;28;20427;-83
2023/12/17 12:06:26;;;;;;;3.17;1.70;;;8.30;99.90;;;;;;5024970;28;20863;-83
2023/12/17 12:08:55;;;;;;;2.33;1.63;;;8.30;99.90;;;;;;5025463;28;20189;-82
2023/12/17 12:11:34;;;;;;;2.73;1.67;;;8.30;99.90;;;;;;5041258;28;20828;-85
2023/12/17 12:14:03;;;;;;;2.67;1.77;;;8.30;99.90;;;;;;5040369;28;20487;-82
2023/12/17 12:16:40;;;;;;;4.68;2.80;;;8.30;99.90;;;;;;5053934;28;20505;-85
2023/12/17 12:19:09;;;;;;;2.90;2.23;;;8.30;99.90;;;;;;5057814;28;20737;-87
2023/12/17 12:21:50;;;;;;;3.40;1.90;;;8.30;99.90;;;;;;5045446;28;20542;-84
2023/12/17 12:24:20;;;;;;;2.90;1.80;;;8.40;99.90;;;;;;5042812;28;20427;-82
2023/12/17 12:26:50;;;;;;;3.60;2.20;;;8.30;99.90;;;;;;5043484;28;20471;-81
2023/12/17 12:29:20;;;;;;;4.97;2.67;;;8.30;99.90;;;;;;5048168;28;20415;-84
2023/12/17 12:31:52;;;;;;;2.67;1.97;;;8.30;99.90;;;;;;5030929;28;20466;-86
2023/12/17 12:34:20;;;;;;;3.28;2.33;;;8.30;99.90;;;;;;5033132;28;20545;-83
2023/12/17 12:36:50;;;;;;;3.20;2.20;;;8.30;99.90;;;;;;5030942;28;20220;-82
2023/12/17 12:39:21;;;;;;;2.90;2.30;;;8.30;99.90;;;;;;5031637;28;20703;-84
2023/12/17 12:41:50;;;;;;;2.87;2.40;;;8.30;99.90;;;;;;5037990;28;20506;-84
2023/12/17 12:44:20;;;;;;;2.63;1.90;;;8.30;99.90;;;;;;5045477;28;20419;-82
2023/12/17 12:46:49;;;;;;;3.33;2.00;;;8.30;99.90;;;;;;5038973;28;20479;-83
2023/12/17 12:49:18;;;;;;;3.03;2.20;;;8.30;99.90;;;;;;5047006;28;20455;-81
2023/12/17 12:51:47;;;;;;;3.60;2.30;;;8.30;99.90;;;;;;5040136;28;20470;-82
2023/12/17 12:54:16;;;;;;;2.40;2.07;;;8.30;99.90;;;;;;5034054;28;20415;-81
2023/12/17 12:56:44;;;;;;;3.40;2.23;;;8.30;99.90;;;;;;5032997;28;20495;-80
2023/12/17 12:59:12;;;;;;;2.27;1.97;;;8.30;99.90;;;;;;5031298;28;20467;-81
2023/12/17 13:01:55;;;;;;;2.93;1.90;;;8.30;99.90;;;;;;5045685;28;20553;-84
2023/12/17 13:04:23;;;;;;;3.23;2.93;;;8.30;99.90;;;;;;5041749;28;20524;-82
2023/12/17 13:06:51;;;;;;;2.50;1.83;;;8.30;99.90;;;;;;5034081;28;20481;-82